Pagrindinis puslapis
METAR-TAF:

METAR-TAF

Oro uostai :

Fudžeira, Jungtiniai Arabų Emyratai

platuma: 25-06N, ilguma: 056-20E, Aukštis: 28 m

Dabartinis oras

Ataskaita buvo paskelbta 24 minutes, ne 03:00 UTC
Vėjas 4 kt iš Vakarų/Šiaurės Vakarų
Temperatūra 23°C
Drėgmė 57%
Slėgis 1010 hPa
Matomumas: 8000 m

METAR: OMFJ 190300Z 30004KT 8000 NSC 23/14 Q1009 A2982

Laikas: 07:24 (03:24 UTC)

Prognozė

Ataskaita buvo paskelbta 4 valandos ir 24 minutes, ne 23:00 UTC
Prognozė galioja nuo 19 metu 00 UTC su 20 metu 06 UTC
Vėjas 8 kt iš Vakarų/Šiaurės Vakarų
Matomumas: 8000 m
Tapsmas
nuo 19 metu 05 UTC su 19 metu 07 UTC
Vėjas 8 kt iš Rytų
Tapsmas
nuo 19 metu 14 UTC su 19 metu 16 UTC
Vėjas 3 kt nuo kintamojo kryptimis
Tapsmas
nuo 20 metu 04 UTC su 20 metu 06 UTC
Vėjas 6 kt iš Rytų

TAF: OMFJ 182300Z 1900/2006 29008KT 8000 NSC BECMG 1905/1907 09008KT BECMG 1914/1916 VRB03KT BECMG 2004/2006 09006KT

Orai ataskaitas ir orų prognozės (METAR, TAF).

turimą stotys yra geltonos ir raudonos taškus žemėlapyje.

Perkelti pele per norėdami pamatyti stoties vardą.

Tada spustelėkite, norėdami matyti oro stebėjimo ir prognozės.

Norėdami pakeisti žemėlapį: spustelėkite ant žalios mygtukų su juodo kryžiaus žemyn,; žalią mygtuką su brūkšneliu, jei norite nutolinti; arba žalių rodyklių gretimoms žemėlapius.


METAR-TAF: